SLTJ

Details ICAO SLTJ (TJA)
Name CAPITAN ORIEL LEA PLAZA
Region Bolivia
Timezone America/La_Paz (UTC-4.0)
Plans Departing 7
Arriving 11
Stats Elevation 6,084 ft / 1,854 m (AMSL)
Location -21.555737° -64.701326°
Runways 1
Magnetic Variation 9.486° W
Sunrise 2018-05-27 10:49:00 UTC / 2018-05-27 06:49:00 Local
Sunset 2018-05-27 21:45:51 UTC / 2018-05-27 17:45:51 Local
Advertisement - Login to hide

Runways

ID Width Length Bearing (true) Bearing (mag) Surface Threshold Offset Overrun Length
13 148 ft / 45 m 9,970 ft / 3,039 m 124.42° 133.91° Asphalt 0 ft / 0 m 0 ft / 0 m
31 148 ft / 45 m 9,970 ft / 3,039 m 304.41° 313.90° Asphalt 0 ft / 0 m 0 ft / 0 m

Map

Weather


0- 5 10 15 20 25 30 35+ Temperature / ° C

Clouds and Precipitation
Forecast for 2018-05-27 12:00 UTC. Updated 3 hours ago

Ground ~20,000 ft ~40,000 ft Winds

METAR

SLTJ 271300Z 00000KT 9999 NSC 11/03 Q1020

TAF

Not found

Frequencies

Tower 118.10 MHz TARIJA TWR
Approach 119.40 MHz TARIJA APP
Warning: Do not use this data for real-world aviation or navigation. No guarantee of current accuracy is given.